Main page
METAR-TAF:

METAR-TAF

Airports :

Juanjuí Airport

Juanjuí, Peru

latitude: 07-10-10S, longitude: 076-43-45W, elevation: 350 m

Current weather observation

The report was made 52 minutes ago, at 19:00 UTC
Wind 3 kt from the Southeast
Temperature 32°C
Humidity 52%
Pressure 1024 hPa
Visibility 10 km or more
Scattered clouds at a height of 2300 ft

METAR: SPJI 161900Z 13003KT 9999 SCT023 32/21 Q1024 RMK PP000

Time: 14:52 (19:52 UTC)

Forecast

The report was made 2 hours and 52 minutes ago, at 17:00 UTC
Forecast valid from 16 at 18 UTC to 17 at 18 UTC
Wind 3 kt from the East/Southeast
Visibility 10 km or more
Scattered clouds at a height of 2000 ft

TAF: SPJI 161700Z 1618/1718 12003KT 9999 SCT020 TX32/1620Z TN20/1711Z

Weather observations and forecasts of more than 4000 airports (METAR and TAF reports).

The available stations are represented by yellow and red dots on the map.

Hover mouse over dot to see the name of the station.

Then click to see weather observations and forecasts.

To change the map : click on the green buttons with a black cross to zoom in, on the green button with a dash to zoom out, or on the green arrows for adjacent maps.


METAR-TAF: